sensor_id;sensor_type;location;lat;lon;timestamp;pressure;altitude;pressure_sealevel;temperature;humidity
41703;BME280;861;48.808;9.006;2023-07-31T00:01:40;97150.72;;;18.81;66.02
41703;BME280;861;48.808;9.006;2023-07-31T00:04:10;97153.56;;;18.77;66.46
41703;BME280;861;48.808;9.006;2023-07-31T00:06:37;97156.09;;;18.72;65.95
41703;BME280;861;48.808;9.006;2023-07-31T00:09:03;97162.72;;;18.74;65.73
41703;BME280;861;48.808;9.006;2023-07-31T00:11:30;97156.31;;;18.49;66.54
41703;BME280;861;48.808;9.006;2023-07-31T00:13:57;97150.69;;;18.36;66.17
41703;BME280;861;48.808;9.006;2023-07-31T00:16:24;97153.56;;;18.33;66.36
41703;BME280;861;48.808;9.006;2023-07-31T00:18:50;97163.19;;;18.41;66.18
41703;BME280;861;48.808;9.006;2023-07-31T00:21:17;97147.72;;;18.47;66.09
41703;BME280;861;48.808;9.006;2023-07-31T00:23:44;97152.53;;;18.43;65.87
41703;BME280;861;48.808;9.006;2023-07-31T00:26:10;97153.53;;;18.49;65.69
41703;BME280;861;48.808;9.006;2023-07-31T00:28:37;97147.63;;;18.34;66.86
41703;BME280;861;48.808;9.006;2023-07-31T00:31:03;97153.97;;;18.47;66.61
41703;BME280;861;48.808;9.006;2023-07-31T00:33:34;97158.75;;;18.47;66.25
41703;BME280;861;48.808;9.006;2023-07-31T00:36:00;97160.44;;;18.41;66.33
41703;BME280;861;48.808;9.006;2023-07-31T00:38:27;97156.63;;;18.34;67.11
41703;BME280;861;48.808;9.006;2023-07-31T00:40:54;97157.78;;;18.21;67.23
41703;BME280;861;48.808;9.006;2023-07-31T00:43:20;97153.91;;;18.18;66.99
41703;BME280;861;48.808;9.006;2023-07-31T00:45:47;97160.63;;;18.17;67.51
41703;BME280;861;48.808;9.006;2023-07-31T00:48:13;97159.75;;;18.20;67.33
41703;BME280;861;48.808;9.006;2023-07-31T00:50:40;97155.81;;;18.05;68.06
41703;BME280;861;48.808;9.006;2023-07-31T00:53:07;97146.97;;;17.98;67.93
41703;BME280;861;48.808;9.006;2023-07-31T00:55:34;97155.19;;;18.14;67.59
41703;BME280;861;48.808;9.006;2023-07-31T00:58:01;97153.81;;;18.22;67.28
41703;BME280;861;48.808;9.006;2023-07-31T01:00:28;97159.25;;;18.25;67.30
41703;BME280;861;48.808;9.006;2023-07-31T01:02:55;97154.84;;;18.28;66.96
41703;BME280;861;48.808;9.006;2023-07-31T01:08:44;97150.97;;;18.25;67.57
41703;BME280;861;48.808;9.006;2023-07-31T01:11:30;97154.50;;;18.26;67.10
41703;BME280;861;48.808;9.006;2023-07-31T01:14:00;97142.97;;;17.83;68.75
41703;BME280;861;48.808;9.006;2023-07-31T01:16:27;97146.75;;;17.73;68.66
41703;BME280;861;48.808;9.006;2023-07-31T01:18:54;97136.75;;;17.47;69.98
41703;BME280;861;48.808;9.006;2023-07-31T01:21:53;97136.94;;;17.20;70.51
41703;BME280;861;48.808;9.006;2023-07-31T01:27:36;97127.84;;;17.39;70.50
41703;BME280;861;48.808;9.006;2023-07-31T01:30:21;97137.00;;;17.52;70.34
41703;BME280;861;48.808;9.006;2023-07-31T01:32:55;97130.56;;;17.59;69.94
41703;BME280;861;48.808;9.006;2023-07-31T01:35:24;97126.38;;;17.86;69.88
41703;BME280;861;48.808;9.006;2023-07-31T01:37:53;97123.84;;;18.08;69.28
41703;BME280;861;48.808;9.006;2023-07-31T01:40:22;97118.63;;;18.13;68.70
41703;BME280;861;48.808;9.006;2023-07-31T01:42:49;97118.69;;;17.94;69.17
41703;BME280;861;48.808;9.006;2023-07-31T01:45:15;97114.66;;;17.98;69.36
41703;BME280;861;48.808;9.006;2023-07-31T01:47:43;97122.31;;;18.07;69.17
41703;BME280;861;48.808;9.006;2023-07-31T01:50:10;97115.34;;;18.02;69.17
41703;BME280;861;48.808;9.006;2023-07-31T01:52:37;97114.81;;;18.07;68.56
41703;BME280;861;48.808;9.006;2023-07-31T01:55:04;97107.41;;;18.04;68.71
41703;BME280;861;48.808;9.006;2023-07-31T01:57:30;97108.19;;;17.89;69.41
41703;BME280;861;48.808;9.006;2023-07-31T01:59:57;97105.00;;;17.74;69.59
41703;BME280;861;48.808;9.006;2023-07-31T02:02:23;97097.00;;;17.80;69.64
41703;BME280;861;48.808;9.006;2023-07-31T02:04:50;97094.94;;;17.84;69.01
41703;BME280;861;48.808;9.006;2023-07-31T02:07:17;97098.47;;;17.68;69.80
41703;BME280;861;48.808;9.006;2023-07-31T02:09:43;97101.31;;;17.49;70.62
41703;BME280;861;48.808;9.006;2023-07-31T02:12:10;97090.16;;;17.36;71.03
41703;BME280;861;48.808;9.006;2023-07-31T02:14:37;97090.31;;;17.49;70.75
41703;BME280;861;48.808;9.006;2023-07-31T02:17:04;97088.47;;;17.42;70.40
41703;BME280;861;48.808;9.006;2023-07-31T02:19:31;97083.00;;;17.23;71.88
41703;BME280;861;48.808;9.006;2023-07-31T02:21:58;97089.53;;;17.29;71.25
41703;BME280;861;48.808;9.006;2023-07-31T02:24:25;97082.75;;;17.17;71.73
41703;BME280;861;48.808;9.006;2023-07-31T02:26:51;97082.13;;;17.10;72.19
41703;BME280;861;48.808;9.006;2023-07-31T02:29:18;97079.63;;;17.15;71.96
41703;BME280;861;48.808;9.006;2023-07-31T02:31:44;97063.97;;;17.12;71.67
41703;BME280;861;48.808;9.006;2023-07-31T02:34:11;97062.34;;;17.15;71.93
41703;BME280;861;48.808;9.006;2023-07-31T02:36:38;97068.69;;;17.12;71.96
41703;BME280;861;48.808;9.006;2023-07-31T02:39:05;97064.44;;;16.91;72.52
41703;BME280;861;48.808;9.006;2023-07-31T02:41:31;97062.41;;;16.75;73.23
41703;BME280;861;48.808;9.006;2023-07-31T02:43:58;97058.81;;;16.78;73.64
41703;BME280;861;48.808;9.006;2023-07-31T02:46:24;97061.50;;;16.82;73.47
41703;BME280;861;48.808;9.006;2023-07-31T02:48:51;97054.88;;;16.79;72.94
41703;BME280;861;48.808;9.006;2023-07-31T02:51:18;97061.06;;;16.83;73.11
41703;BME280;861;48.808;9.006;2023-07-31T02:53:44;97054.69;;;17.06;72.29
41703;BME280;861;48.808;9.006;2023-07-31T02:56:11;97049.19;;;17.06;72.01
41703;BME280;861;48.808;9.006;2023-07-31T02:58:37;97056.69;;;16.86;73.21
41703;BME280;861;48.808;9.006;2023-07-31T03:01:04;97068.09;;;16.68;73.47
41703;BME280;861;48.808;9.006;2023-07-31T03:03:30;97062.34;;;16.79;72.60
41703;BME280;861;48.808;9.006;2023-07-31T03:05:57;97058.09;;;16.94;72.43
41703;BME280;861;48.808;9.006;2023-07-31T03:08:24;97055.31;;;16.78;72.72
41703;BME280;861;48.808;9.006;2023-07-31T03:10:50;97069.84;;;16.59;72.65
41703;BME280;861;48.808;9.006;2023-07-31T03:13:17;97064.25;;;16.43;74.46
41703;BME280;861;48.808;9.006;2023-07-31T03:15:44;97068.59;;;16.21;75.20
41703;BME280;861;48.808;9.006;2023-07-31T03:18:10;97059.78;;;16.10;75.54
41703;BME280;861;48.808;9.006;2023-07-31T03:20:37;97056.66;;;16.50;73.37
41703;BME280;861;48.808;9.006;2023-07-31T03:23:03;97060.31;;;16.63;72.95
41703;BME280;861;48.808;9.006;2023-07-31T03:25:30;97062.63;;;16.45;74.63
41703;BME280;861;48.808;9.006;2023-07-31T03:27:56;97067.84;;;16.40;74.42
41703;BME280;861;48.808;9.006;2023-07-31T03:30:23;97062.56;;;16.49;74.20
41703;BME280;861;48.808;9.006;2023-07-31T03:32:49;97054.03;;;16.63;73.70
41703;BME280;861;48.808;9.006;2023-07-31T03:35:16;97060.44;;;16.76;73.02
41703;BME280;861;48.808;9.006;2023-07-31T03:37:42;97066.44;;;16.71;72.67
41703;BME280;861;48.808;9.006;2023-07-31T03:40:10;97063.13;;;16.60;72.97
41703;BME280;861;48.808;9.006;2023-07-31T03:42:37;97067.84;;;16.59;73.81
41703;BME280;861;48.808;9.006;2023-07-31T03:45:04;97074.44;;;16.65;72.68
41703;BME280;861;48.808;9.006;2023-07-31T03:47:31;97066.19;;;16.65;73.40
41703;BME280;861;48.808;9.006;2023-07-31T03:49:58;97076.47;;;16.61;73.42
41703;BME280;861;48.808;9.006;2023-07-31T03:52:24;97062.56;;;16.49;74.08
41703;BME280;861;48.808;9.006;2023-07-31T03:54:50;97069.75;;;16.43;74.23
41703;BME280;861;48.808;9.006;2023-07-31T03:57:17;97066.81;;;16.53;73.51
41703;BME280;861;48.808;9.006;2023-07-31T03:59:43;97064.63;;;16.64;72.74
41703;BME280;861;48.808;9.006;2023-07-31T04:02:10;97054.16;;;16.75;73.36
41703;BME280;861;48.808;9.006;2023-07-31T04:04:37;97059.25;;;16.77;72.32
41703;BME280;861;48.808;9.006;2023-07-31T04:07:03;97056.00;;;16.62;72.25
41703;BME280;861;48.808;9.006;2023-07-31T04:09:30;97056.28;;;16.68;72.87
41703;BME280;861;48.808;9.006;2023-07-31T04:11:57;97055.31;;;16.78;72.39
41703;BME280;861;48.808;9.006;2023-07-31T04:14:23;97052.00;;;16.47;72.81
41703;BME280;861;48.808;9.006;2023-07-31T04:16:51;97051.78;;;16.58;72.75
41703;BME280;861;48.808;9.006;2023-07-31T04:19:18;97051.50;;;16.52;73.59
41703;BME280;861;48.808;9.006;2023-07-31T04:21:45;97056.06;;;16.39;74.18
41703;BME280;861;48.808;9.006;2023-07-31T04:24:11;97053.69;;;16.61;72.76
41703;BME280;861;48.808;9.006;2023-07-31T04:26:38;97052.44;;;16.65;72.12
41703;BME280;861;48.808;9.006;2023-07-31T04:29:04;97047.00;;;16.62;73.14
41703;BME280;861;48.808;9.006;2023-07-31T04:31:31;97047.44;;;16.60;72.36
41703;BME280;861;48.808;9.006;2023-07-31T04:33:58;97045.00;;;16.62;73.10
41703;BME280;861;48.808;9.006;2023-07-31T04:36:24;97053.81;;;16.73;72.77
41703;BME280;861;48.808;9.006;2023-07-31T04:38:51;97044.06;;;16.89;72.37
41703;BME280;861;48.808;9.006;2023-07-31T04:41:18;97047.97;;;16.52;72.95
41703;BME280;861;48.808;9.006;2023-07-31T04:43:44;97049.31;;;16.63;73.17
41703;BME280;861;48.808;9.006;2023-07-31T04:46:11;97050.50;;;16.82;71.96
41703;BME280;861;48.808;9.006;2023-07-31T04:48:37;97053.34;;;16.59;72.92
41703;BME280;861;48.808;9.006;2023-07-31T04:51:04;97043.41;;;16.65;73.59
41703;BME280;861;48.808;9.006;2023-07-31T04:53:31;97052.13;;;16.79;73.52
41703;BME280;861;48.808;9.006;2023-07-31T04:55:57;97057.59;;;16.99;72.54
41703;BME280;861;48.808;9.006;2023-07-31T04:58:24;97050.84;;;16.84;72.73
41703;BME280;861;48.808;9.006;2023-07-31T05:00:50;97048.72;;;16.92;72.58
41703;BME280;861;48.808;9.006;2023-07-31T05:03:17;97045.53;;;16.93;72.58
41703;BME280;861;48.808;9.006;2023-07-31T05:05:44;97036.56;;;16.73;73.87
41703;BME280;861;48.808;9.006;2023-07-31T05:08:10;97037.78;;;16.88;73.25
41703;BME280;861;48.808;9.006;2023-07-31T05:10:37;97040.53;;;16.88;73.95
41703;BME280;861;48.808;9.006;2023-07-31T05:13:03;97039.25;;;16.93;72.68
41703;BME280;861;48.808;9.006;2023-07-31T05:15:30;97034.97;;;16.92;72.84
41703;BME280;861;48.808;9.006;2023-07-31T05:17:57;97028.59;;;16.95;72.96
41703;BME280;861;48.808;9.006;2023-07-31T05:20:24;97034.47;;;16.97;73.30
41703;BME280;861;48.808;9.006;2023-07-31T05:22:51;97045.78;;;16.83;74.32
41703;BME280;861;48.808;9.006;2023-07-31T05:25:18;97038.94;;;16.91;74.03
41703;BME280;861;48.808;9.006;2023-07-31T05:27:45;97044.69;;;16.96;74.23
41703;BME280;861;48.808;9.006;2023-07-31T05:30:12;97037.94;;;17.33;72.13
41703;BME280;861;48.808;9.006;2023-07-31T05:32:38;97040.56;;;17.04;74.00
41703;BME280;861;48.808;9.006;2023-07-31T05:35:05;97044.81;;;17.25;72.67
41703;BME280;861;48.808;9.006;2023-07-31T05:37:32;97038.72;;;17.33;72.88
41703;BME280;861;48.808;9.006;2023-07-31T05:39:59;97044.56;;;17.35;73.01
41703;BME280;861;48.808;9.006;2023-07-31T05:42:25;97040.97;;;17.22;73.21
41703;BME280;861;48.808;9.006;2023-07-31T05:44:52;97038.19;;;17.06;74.32
41703;BME280;861;48.808;9.006;2023-07-31T05:47:18;97030.03;;;17.19;73.02
41703;BME280;861;48.808;9.006;2023-07-31T05:49:45;97034.06;;;17.30;73.37
41703;BME280;861;48.808;9.006;2023-07-31T05:52:11;97021.59;;;17.42;72.92
41703;BME280;861;48.808;9.006;2023-07-31T05:54:38;97029.06;;;17.41;73.34
41703;BME280;861;48.808;9.006;2023-07-31T05:57:05;97028.31;;;17.73;71.65
41703;BME280;861;48.808;9.006;2023-07-31T05:59:32;97032.63;;;17.74;71.81
41703;BME280;861;48.808;9.006;2023-07-31T06:01:59;97030.84;;;17.51;72.35
41703;BME280;861;48.808;9.006;2023-07-31T06:04:26;97036.53;;;17.44;72.62
41703;BME280;861;48.808;9.006;2023-07-31T06:06:53;97038.41;;;17.47;72.24
41703;BME280;861;48.808;9.006;2023-07-31T06:09:20;97033.06;;;17.72;71.79
41703;BME280;861;48.808;9.006;2023-07-31T06:11:46;97032.47;;;17.65;71.93
41703;BME280;861;48.808;9.006;2023-07-31T06:14:13;97042.00;;;17.60;72.71
41703;BME280;861;48.808;9.006;2023-07-31T06:16:40;97019.81;;;17.67;72.52
41703;BME280;861;48.808;9.006;2023-07-31T06:19:07;97031.06;;;17.89;72.25
41703;BME280;861;48.808;9.006;2023-07-31T06:21:34;97025.94;;;18.03;70.76
41703;BME280;861;48.808;9.006;2023-07-31T06:24:05;97030.59;;;18.06;71.33
41703;BME280;861;48.808;9.006;2023-07-31T06:26:32;97026.47;;;18.43;70.28
41703;BME280;861;48.808;9.006;2023-07-31T06:28:58;97036.00;;;18.55;69.83
41703;BME280;861;48.808;9.006;2023-07-31T06:31:25;97030.59;;;18.64;68.90
41703;BME280;861;48.808;9.006;2023-07-31T06:33:53;97024.97;;;18.55;69.56
41703;BME280;861;48.808;9.006;2023-07-31T06:36:20;97025.72;;;18.55;69.47
41703;BME280;861;48.808;9.006;2023-07-31T06:38:47;97029.19;;;18.72;68.15
41703;BME280;861;48.808;9.006;2023-07-31T06:41:14;97027.91;;;19.01;67.26
41703;BME280;861;48.808;9.006;2023-07-31T06:43:40;97031.09;;;19.25;65.87
41703;BME280;861;48.808;9.006;2023-07-31T06:46:08;97039.47;;;19.09;66.42
41703;BME280;861;48.808;9.006;2023-07-31T06:48:36;97035.63;;;18.94;65.75
41703;BME280;861;48.808;9.006;2023-07-31T06:51:05;97043.63;;;18.76;66.92
41703;BME280;861;48.808;9.006;2023-07-31T06:53:32;97036.94;;;18.89;65.71
41703;BME280;861;48.808;9.006;2023-07-31T06:55:59;97045.22;;;18.77;66.91
41703;BME280;861;48.808;9.006;2023-07-31T06:58:25;97038.22;;;18.72;67.08
41703;BME280;861;48.808;9.006;2023-07-31T07:00:52;97046.06;;;18.74;66.91
41703;BME280;861;48.808;9.006;2023-07-31T07:03:21;97034.94;;;18.90;68.07
41703;BME280;861;48.808;9.006;2023-07-31T07:05:48;97023.38;;;19.07;66.04
41703;BME280;861;48.808;9.006;2023-07-31T07:08:14;97027.13;;;19.38;66.89
41703;BME280;861;48.808;9.006;2023-07-31T07:10:41;97031.31;;;19.43;67.46
41703;BME280;861;48.808;9.006;2023-07-31T07:13:07;97036.25;;;19.73;64.14
41703;BME280;861;48.808;9.006;2023-07-31T07:15:34;97024.75;;;19.74;65.11
41703;BME280;861;48.808;9.006;2023-07-31T07:18:01;97029.28;;;19.81;64.17
41703;BME280;861;48.808;9.006;2023-07-31T07:20:27;97018.66;;;19.79;63.85
41703;BME280;861;48.808;9.006;2023-07-31T07:22:54;97018.91;;;20.07;62.05
41703;BME280;861;48.808;9.006;2023-07-31T07:25:20;97018.78;;;19.89;64.08
41703;BME280;861;48.808;9.006;2023-07-31T07:27:47;97010.09;;;19.99;61.78
41703;BME280;861;48.808;9.006;2023-07-31T07:30:14;97012.50;;;19.75;62.80
41703;BME280;861;48.808;9.006;2023-07-31T07:32:41;97015.59;;;19.77;63.51
41703;BME280;861;48.808;9.006;2023-07-31T07:35:08;97003.88;;;19.73;63.60
41703;BME280;861;48.808;9.006;2023-07-31T07:37:34;97008.22;;;19.62;64.81
41703;BME280;861;48.808;9.006;2023-07-31T07:40:01;97008.19;;;19.74;62.70
41703;BME280;861;48.808;9.006;2023-07-31T07:42:27;97010.19;;;19.74;64.64
41703;BME280;861;48.808;9.006;2023-07-31T07:47:20;97022.75;;;19.88;63.70
41703;BME280;861;48.808;9.006;2023-07-31T07:49:47;97006.88;;;19.79;64.55
41703;BME280;861;48.808;9.006;2023-07-31T07:52:13;97008.69;;;20.29;63.21
41703;BME280;861;48.808;9.006;2023-07-31T07:54:40;97011.06;;;20.39;63.04
41703;BME280;861;48.808;9.006;2023-07-31T07:57:06;97001.22;;;20.60;61.50
41703;BME280;861;48.808;9.006;2023-07-31T07:59:33;96999.47;;;20.75;60.81
41703;BME280;861;48.808;9.006;2023-07-31T08:01:59;97006.81;;;20.47;62.51
41703;BME280;861;48.808;9.006;2023-07-31T08:04:26;97009.97;;;20.58;63.51
41703;BME280;861;48.808;9.006;2023-07-31T08:06:52;97003.81;;;20.54;61.10
41703;BME280;861;48.808;9.006;2023-07-31T08:09:19;96996.41;;;20.51;62.39
41703;BME280;861;48.808;9.006;2023-07-31T08:11:45;96996.59;;;21.09;59.88
41703;BME280;861;48.808;9.006;2023-07-31T08:14:12;96984.94;;;20.92;61.20
41703;BME280;861;48.808;9.006;2023-07-31T08:16:38;96989.31;;;21.02;60.89
41703;BME280;861;48.808;9.006;2023-07-31T08:19:05;96978.81;;;21.28;61.35
41703;BME280;861;48.808;9.006;2023-07-31T08:21:52;96990.22;;;21.39;61.68
41703;BME280;861;48.808;9.006;2023-07-31T08:24:21;96988.25;;;21.40;59.12
41703;BME280;861;48.808;9.006;2023-07-31T08:26:47;96988.00;;;21.16;60.35
41703;BME280;861;48.808;9.006;2023-07-31T08:29:14;96981.66;;;21.06;59.46
41703;BME280;861;48.808;9.006;2023-07-31T08:31:41;96975.88;;;20.92;60.64
41703;BME280;861;48.808;9.006;2023-07-31T08:34:07;96980.47;;;20.86;61.39
41703;BME280;861;48.808;9.006;2023-07-31T08:36:34;96981.91;;;20.69;62.75
41703;BME280;861;48.808;9.006;2023-07-31T08:39:00;96979.22;;;20.87;61.18
41703;BME280;861;48.808;9.006;2023-07-31T08:41:28;96976.59;;;20.83;61.42
41703;BME280;861;48.808;9.006;2023-07-31T08:43:57;96982.13;;;20.83;60.23
41703;BME280;861;48.808;9.006;2023-07-31T08:46:26;96968.09;;;20.47;62.49
41703;BME280;861;48.808;9.006;2023-07-31T08:48:55;96967.00;;;20.75;62.15
41703;BME280;861;48.808;9.006;2023-07-31T08:51:24;96966.44;;;20.80;61.81
41703;BME280;861;48.808;9.006;2023-07-31T08:53:53;96970.09;;;20.77;61.81
41703;BME280;861;48.808;9.006;2023-07-31T08:56:21;96970.50;;;20.67;63.93
41703;BME280;861;48.808;9.006;2023-07-31T08:58:50;96966.88;;;20.79;63.31
41703;BME280;861;48.808;9.006;2023-07-31T09:01:19;96966.25;;;21.05;62.14
41703;BME280;861;48.808;9.006;2023-07-31T09:03:48;96947.84;;;21.20;61.28
41703;BME280;861;48.808;9.006;2023-07-31T09:06:21;96947.47;;;21.49;62.35
41703;BME280;861;48.808;9.006;2023-07-31T09:08:51;96947.22;;;22.01;57.99
41703;BME280;861;48.808;9.006;2023-07-31T09:11:21;96941.53;;;21.96;59.19
41703;BME280;861;48.808;9.006;2023-07-31T09:13:52;96940.16;;;21.82;60.08
41703;BME280;861;48.808;9.006;2023-07-31T09:16:30;96944.91;;;22.09;57.90
41703;BME280;861;48.808;9.006;2023-07-31T09:18:59;96954.00;;;22.00;59.27
41703;BME280;861;48.808;9.006;2023-07-31T09:21:28;96952.91;;;21.89;58.74
41703;BME280;861;48.808;9.006;2023-07-31T09:23:55;96945.31;;;21.53;58.95
41703;BME280;861;48.808;9.006;2023-07-31T09:26:38;96951.16;;;21.55;58.55
41703;BME280;861;48.808;9.006;2023-07-31T09:29:07;96945.44;;;21.32;59.35
41703;BME280;861;48.808;9.006;2023-07-31T09:31:45;96948.56;;;21.70;58.46
41703;BME280;861;48.808;9.006;2023-07-31T09:34:12;96944.59;;;21.80;57.86
41703;BME280;861;48.808;9.006;2023-07-31T09:36:49;96942.84;;;21.73;58.14
41703;BME280;861;48.808;9.006;2023-07-31T09:39:19;96926.41;;;21.88;58.49
41703;BME280;861;48.808;9.006;2023-07-31T09:41:57;96925.34;;;22.03;59.36
41703;BME280;861;48.808;9.006;2023-07-31T09:44:41;96924.97;;;22.46;56.52
41703;BME280;861;48.808;9.006;2023-07-31T09:47:22;96917.13;;;22.27;57.54
41703;BME280;861;48.808;9.006;2023-07-31T09:49:53;96902.84;;;22.10;57.77
41703;BME280;861;48.808;9.006;2023-07-31T09:52:20;96905.47;;;22.05;59.90
41703;BME280;861;48.808;9.006;2023-07-31T09:54:46;96909.72;;;22.33;56.87
41703;BME280;861;48.808;9.006;2023-07-31T09:57:14;96918.03;;;22.42;56.28
41703;BME280;861;48.808;9.006;2023-07-31T09:59:43;96912.69;;;22.29;57.49
41703;BME280;861;48.808;9.006;2023-07-31T10:02:21;96898.34;;;22.13;58.21
41703;BME280;861;48.808;9.006;2023-07-31T10:04:57;96898.47;;;22.54;55.82
41703;BME280;861;48.808;9.006;2023-07-31T10:07:31;96902.13;;;22.60;55.88
41703;BME280;861;48.808;9.006;2023-07-31T10:10:07;96901.41;;;22.93;55.80
41703;BME280;861;48.808;9.006;2023-07-31T10:12:38;96891.75;;;23.12;55.81
41703;BME280;861;48.808;9.006;2023-07-31T10:15:06;96891.94;;;22.66;55.66
41703;BME280;861;48.808;9.006;2023-07-31T10:17:36;96888.72;;;23.01;58.23
41703;BME280;861;48.808;9.006;2023-07-31T10:20:04;96876.91;;;23.15;56.92
41703;BME280;861;48.808;9.006;2023-07-31T10:22:35;96882.66;;;23.58;55.03
41703;BME280;861;48.808;9.006;2023-07-31T10:25:03;96875.25;;;23.93;51.91
41703;BME280;861;48.808;9.006;2023-07-31T10:27:30;96880.28;;;24.04;52.59
41703;BME280;861;48.808;9.006;2023-07-31T10:29:59;96870.34;;;24.27;53.64
41703;BME280;861;48.808;9.006;2023-07-31T10:32:31;96860.91;;;24.53;50.93
41703;BME280;861;48.808;9.006;2023-07-31T10:34:59;96855.13;;;24.71;50.74
41703;BME280;861;48.808;9.006;2023-07-31T10:37:41;96869.72;;;24.66;52.08
41703;BME280;861;48.808;9.006;2023-07-31T10:40:41;96855.72;;;24.61;51.30
41703;BME280;861;48.808;9.006;2023-07-31T10:43:08;96864.16;;;24.66;51.33
41703;BME280;861;48.808;9.006;2023-07-31T10:45:43;96855.97;;;25.12;50.63
41703;BME280;861;48.808;9.006;2023-07-31T10:48:15;96864.56;;;25.08;49.79
41703;BME280;861;48.808;9.006;2023-07-31T10:50:52;96867.75;;;25.36;49.74
41703;BME280;861;48.808;9.006;2023-07-31T10:53:33;96872.56;;;25.35;51.10
41703;BME280;861;48.808;9.006;2023-07-31T10:56:05;96857.41;;;25.22;50.34
41703;BME280;861;48.808;9.006;2023-07-31T10:58:34;96863.47;;;24.86;51.85
41703;BME280;861;48.808;9.006;2023-07-31T11:01:06;96858.97;;;24.59;52.53
41703;BME280;861;48.808;9.006;2023-07-31T11:03:47;96858.50;;;24.61;52.81
41703;BME280;861;48.808;9.006;2023-07-31T11:06:17;96854.66;;;24.73;51.48
41703;BME280;861;48.808;9.006;2023-07-31T11:08:51;96855.47;;;24.93;51.57
41703;BME280;861;48.808;9.006;2023-07-31T11:11:20;96854.31;;;24.36;51.92
41703;BME280;861;48.808;9.006;2023-07-31T11:13:50;96857.94;;;24.28;52.40
41703;BME280;861;48.808;9.006;2023-07-31T11:16:24;96858.22;;;24.00;53.05
41703;BME280;861;48.808;9.006;2023-07-31T11:18:53;96851.88;;;24.00;53.54
41703;BME280;861;48.808;9.006;2023-07-31T11:21:24;96850.81;;;23.97;53.59
41703;BME280;861;48.808;9.006;2023-07-31T11:23:56;96857.16;;;23.98;52.59
41703;BME280;861;48.808;9.006;2023-07-31T11:26:24;96857.94;;;23.75;54.02
41703;BME280;861;48.808;9.006;2023-07-31T11:28:51;96857.06;;;23.69;53.88
41703;BME280;861;48.808;9.006;2023-07-31T11:31:19;96861.00;;;24.15;51.34
41703;BME280;861;48.808;9.006;2023-07-31T11:33:46;96859.16;;;23.97;53.42
41703;BME280;861;48.808;9.006;2023-07-31T11:36:18;96854.41;;;23.89;52.67
41703;BME280;861;48.808;9.006;2023-07-31T11:38:46;96854.72;;;23.91;51.44
41703;BME280;861;48.808;9.006;2023-07-31T11:41:18;96847.28;;;23.59;53.72
41703;BME280;861;48.808;9.006;2023-07-31T11:43:47;96846.72;;;23.69;52.44
41703;BME280;861;48.808;9.006;2023-07-31T11:46:14;96837.69;;;23.60;51.93
41703;BME280;861;48.808;9.006;2023-07-31T11:48:41;96839.78;;;23.50;53.67
41703;BME280;861;48.808;9.006;2023-07-31T11:51:12;96827.19;;;23.40;55.15
41703;BME280;861;48.808;9.006;2023-07-31T11:53:49;96820.19;;;23.45;55.25
41703;BME280;861;48.808;9.006;2023-07-31T11:56:20;96819.06;;;23.51;55.28
41703;BME280;861;48.808;9.006;2023-07-31T11:58:53;96810.31;;;23.44;55.24
41703;BME280;861;48.808;9.006;2023-07-31T12:01:26;96805.63;;;23.50;55.09
41703;BME280;861;48.808;9.006;2023-07-31T12:03:57;96804.88;;;23.49;55.18
41703;BME280;861;48.808;9.006;2023-07-31T12:06:37;96805.06;;;23.46;54.59
41703;BME280;861;48.808;9.006;2023-07-31T12:09:05;96805.31;;;23.33;56.23
41703;BME280;861;48.808;9.006;2023-07-31T12:11:45;96800.06;;;23.35;56.46
41703;BME280;861;48.808;9.006;2023-07-31T12:14:24;96806.53;;;23.70;53.20
41703;BME280;861;48.808;9.006;2023-07-31T12:16:58;96808.56;;;23.70;54.14
41703;BME280;861;48.808;9.006;2023-07-31T12:19:27;96809.06;;;23.45;53.72
41703;BME280;861;48.808;9.006;2023-07-31T12:21:59;96807.72;;;23.26;54.05
41703;BME280;861;48.808;9.006;2023-07-31T12:24:29;96795.84;;;23.40;53.38
41703;BME280;861;48.808;9.006;2023-07-31T12:26:55;96792.13;;;23.43;53.15
41703;BME280;861;48.808;9.006;2023-07-31T12:29:22;96786.22;;;23.26;52.77
41703;BME280;861;48.808;9.006;2023-07-31T12:31:49;96793.13;;;23.31;54.64
41703;BME280;861;48.808;9.006;2023-07-31T12:34:21;96785.22;;;23.53;52.02
41703;BME280;861;48.808;9.006;2023-07-31T12:36:47;96788.81;;;23.30;54.96
41703;BME280;861;48.808;9.006;2023-07-31T12:39:17;96780.41;;;23.39;55.23
41703;BME280;861;48.808;9.006;2023-07-31T12:41:43;96788.00;;;23.38;55.32
41703;BME280;861;48.808;9.006;2023-07-31T12:44:10;96772.00;;;23.48;55.97
41703;BME280;861;48.808;9.006;2023-07-31T12:46:36;96772.78;;;23.63;54.85
41703;BME280;861;48.808;9.006;2023-07-31T12:49:03;96764.75;;;23.65;53.48
41703;BME280;861;48.808;9.006;2023-07-31T12:51:30;96766.84;;;23.55;54.06
41703;BME280;861;48.808;9.006;2023-07-31T12:53:56;96761.38;;;23.75;53.20
41703;BME280;861;48.808;9.006;2023-07-31T12:56:23;96751.97;;;23.58;54.72
41703;BME280;861;48.808;9.006;2023-07-31T12:58:50;96750.06;;;23.79;55.36
41703;BME280;861;48.808;9.006;2023-07-31T13:01:16;96745.00;;;23.92;55.45
41703;BME280;861;48.808;9.006;2023-07-31T13:03:43;96744.16;;;24.00;54.87
41703;BME280;861;48.808;9.006;2023-07-31T13:06:09;96740.56;;;24.14;51.98
41703;BME280;861;48.808;9.006;2023-07-31T13:08:37;96741.25;;;23.80;52.50
41703;BME280;861;48.808;9.006;2023-07-31T13:11:04;96749.78;;;23.91;52.93
41703;BME280;861;48.808;9.006;2023-07-31T13:13:31;96743.06;;;23.69;53.49
41703;BME280;861;48.808;9.006;2023-07-31T13:15:57;96737.13;;;23.76;53.37
41703;BME280;861;48.808;9.006;2023-07-31T13:18:24;96726.75;;;23.76;53.18
41703;BME280;861;48.808;9.006;2023-07-31T13:20:50;96737.22;;;23.67;53.69
41703;BME280;861;48.808;9.006;2023-07-31T13:23:17;96729.56;;;23.62;53.64
41703;BME280;861;48.808;9.006;2023-07-31T13:25:44;96728.31;;;23.92;53.74
41703;BME280;861;48.808;9.006;2023-07-31T13:28:10;96725.78;;;23.94;53.18
41703;BME280;861;48.808;9.006;2023-07-31T13:30:37;96726.69;;;24.00;52.54
41703;BME280;861;48.808;9.006;2023-07-31T13:33:04;96725.53;;;23.92;53.29
41703;BME280;861;48.808;9.006;2023-07-31T13:35:31;96723.03;;;23.79;53.50
41703;BME280;861;48.808;9.006;2023-07-31T13:37:58;96723.41;;;23.87;53.88